Time;durP1;ratioP1;P1;durP2;ratioP2;P2;SDS_P1;SDS_P2;PMS_P1;PMS_P2;Temp;Humidity;BMP_temperature;BMP_pressure;BME280_temperature;BME280_humidity;BME280_pressure;Samples;Min_cycle;Max_cycle;Signal;HPM_P1;HPM_P2
2024/01/21 00:01:19;;;;;;;0.00;0.00;;;0.80;76.90;;;;;;4990352;28;20220;-70
2024/01/21 00:03:45;;;;;;;0.00;0.00;;;0.80;76.80;;;;;;4989561;28;20047;-70
2024/01/21 00:06:11;;;;;;;0.00;0.00;;;0.80;76.80;;;;;;4987711;28;20399;-70
2024/01/21 00:08:36;;;;;;;0.10;0.10;;;0.80;76.90;;;;;;4976176;28;20046;-70
2024/01/21 00:11:02;;;;;;;0.20;0.20;;;0.80;76.90;;;;;;4982284;28;20050;-70
2024/01/21 00:13:28;;;;;;;0.10;0.10;;;0.70;76.40;;;;;;4987062;28;20045;-70
2024/01/21 00:15:54;;;;;;;0.00;0.00;;;0.70;76.80;;;;;;4987650;28;20509;-70
2024/01/21 00:18:19;;;;;;;0.10;0.10;;;0.80;77.00;;;;;;4990533;28;20058;-70
2024/01/21 00:20:45;;;;;;;0.10;0.10;;;0.80;76.70;;;;;;4986434;28;20046;-70
2024/01/21 00:23:11;;;;;;;0.00;0.00;;;0.80;76.70;;;;;;4987035;28;20104;-70
2024/01/21 00:25:36;;;;;;;0.20;0.20;;;0.70;76.70;;;;;;4988152;28;20084;-70
2024/01/21 00:28:03;;;;;;;0.32;0.32;;;0.70;76.80;;;;;;4986685;28;20057;-70
2024/01/21 00:30:29;;;;;;;0.10;0.10;;;0.80;77.10;;;;;;4985734;28;20042;-70
2024/01/21 00:32:54;;;;;;;0.10;0.10;;;0.80;77.00;;;;;;4986568;28;20057;-70
2024/01/21 00:35:20;;;;;;;0.10;0.10;;;0.80;76.90;;;;;;4985478;28;20121;-70
2024/01/21 00:37:46;;;;;;;0.10;0.10;;;0.70;76.60;;;;;;4986056;28;20053;-70
2024/01/21 00:40:11;;;;;;;0.00;0.00;;;0.80;76.70;;;;;;4987486;28;20125;-70
2024/01/21 00:42:37;;;;;;;5.18;3.70;;;0.70;76.40;;;;;;4991424;28;20041;-71
2024/01/21 00:45:03;;;;;;;0.15;0.15;;;0.70;75.90;;;;;;4995865;28;20582;-70
2024/01/21 00:47:30;;;;;;;0.00;0.00;;;0.70;76.10;;;;;;4987845;28;20148;-70
2024/01/21 00:49:56;;;;;;;0.10;0.10;;;0.70;76.00;;;;;;4985819;28;20129;-70
2024/01/21 00:52:22;;;;;;;0.10;0.10;;;0.70;76.10;;;;;;4985707;28;20058;-70
2024/01/21 00:54:47;;;;;;;0.10;0.10;;;0.70;75.50;;;;;;4984804;28;20085;-70
2024/01/21 00:57:13;;;;;;;0.00;0.00;;;0.70;75.50;;;;;;4986322;28;20046;-70
2024/01/21 00:59:39;;;;;;;0.13;0.13;;;0.60;74.80;;;;;;4992624;28;20081;-70
2024/01/21 01:02:04;;;;;;;0.10;0.10;;;0.60;74.80;;;;;;4994999;28;20447;-70
2024/01/21 01:04:30;;;;;;;0.05;0.05;;;0.60;75.10;;;;;;4969162;28;20047;-70
2024/01/21 01:06:55;;;;;;;0.00;0.00;;;0.70;75.10;;;;;;4986107;28;20129;-70
2024/01/21 01:09:21;;;;;;;0.00;0.00;;;0.60;74.70;;;;;;4986255;28;20456;-70
2024/01/21 01:11:47;;;;;;;0.15;0.15;;;0.60;74.70;;;;;;4992848;28;20045;-70
2024/01/21 01:14:13;;;;;;;0.00;0.00;;;0.70;74.90;;;;;;4988365;28;20046;-70
2024/01/21 01:16:39;;;;;;;0.35;0.35;;;0.70;75.00;;;;;;4996741;28;20046;-70
2024/01/21 01:19:06;;;;;;;0.10;0.10;;;0.70;74.90;;;;;;4990349;28;20049;-70
2024/01/21 01:21:31;;;;;;;0.00;0.00;;;0.60;74.40;;;;;;4969225;28;20035;-70
2024/01/21 01:23:57;;;;;;;0.10;0.10;;;0.70;74.70;;;;;;4986495;28;20120;-70
2024/01/21 01:26:23;;;;;;;0.20;0.20;;;0.70;74.70;;;;;;4969891;28;20165;-70
2024/01/21 01:28:50;;;;;;;0.00;0.00;;;0.70;74.40;;;;;;4986238;28;20046;-70
2024/01/21 01:31:20;;;;;;;0.10;0.10;;;0.70;74.40;;;;;;4985731;28;20054;-70
2024/01/21 01:33:46;;;;;;;0.00;0.00;;;0.80;74.00;;;;;;4985697;28;20058;-70
2024/01/21 01:36:12;;;;;;;0.15;0.15;;;0.80;73.50;;;;;;4987330;28;20581;-70
2024/01/21 01:38:38;;;;;;;0.00;0.00;;;0.80;73.70;;;;;;4986066;28;20050;-70
2024/01/21 01:41:04;;;;;;;0.68;0.68;;;0.70;73.20;;;;;;4985719;28;20495;-70
2024/01/21 01:43:30;;;;;;;0.08;0.08;;;0.80;73.70;;;;;;4987114;28;20167;-70
2024/01/21 01:45:59;;;;;;;0.22;0.22;;;0.80;72.90;;;;;;4990697;28;20049;-70
2024/01/21 01:48:25;;;;;;;0.03;0.03;;;0.80;73.00;;;;;;4996874;28;20045;-70
2024/01/21 01:50:51;;;;;;;0.03;0.03;;;0.90;72.80;;;;;;4988914;28;20042;-69
2024/01/21 01:53:17;;;;;;;1.00;1.00;;;0.90;73.50;;;;;;4986964;28;20042;-70
2024/01/21 01:55:44;;;;;;;0.00;0.00;;;0.90;72.60;;;;;;4985439;28;20066;-70
2024/01/21 01:58:12;;;;;;;0.03;0.03;;;0.80;72.50;;;;;;4985222;28;20054;-69
2024/01/21 02:00:38;;;;;;;0.10;0.10;;;0.90;73.20;;;;;;4993401;28;20411;-70
2024/01/21 02:03:04;;;;;;;0.85;0.68;;;0.90;73.20;;;;;;4984757;28;20042;-70
2024/01/21 02:05:30;;;;;;;0.00;0.00;;;0.70;72.30;;;;;;4985934;28;20062;-70
2024/01/21 02:07:55;;;;;;;0.20;0.20;;;0.70;72.70;;;;;;4992464;28;20050;-70
2024/01/21 02:10:21;;;;;;;0.10;0.10;;;0.70;72.30;;;;;;4985128;28;20042;-70
2024/01/21 02:12:47;;;;;;;0.00;0.00;;;0.70;73.10;;;;;;4984942;28;20053;-70
2024/01/21 02:15:13;;;;;;;1.95;0.90;;;0.70;72.40;;;;;;4987839;28;20424;-70
2024/01/21 02:17:39;;;;;;;0.00;0.00;;;0.60;71.50;;;;;;4994648;28;20048;-70
2024/01/21 02:20:07;;;;;;;0.10;0.10;;;0.70;72.20;;;;;;4995800;28;20045;-70
2024/01/21 02:22:37;;;;;;;0.00;0.00;;;0.70;71.90;;;;;;4988551;28;20156;-70
2024/01/21 02:25:03;;;;;;;0.00;0.00;;;0.70;71.40;;;;;;4987951;28;20623;-70
2024/01/21 02:27:28;;;;;;;0.10;0.10;;;0.60;71.30;;;;;;4984844;28;20079;-70
2024/01/21 02:29:54;;;;;;;0.10;0.10;;;0.70;71.70;;;;;;4991349;28;20050;-70
2024/01/21 02:32:20;;;;;;;0.10;0.10;;;0.70;71.90;;;;;;4984734;28;20085;-70
2024/01/21 02:34:45;;;;;;;5.35;2.75;;;0.70;71.90;;;;;;4986417;28;20065;-69
2024/01/21 02:37:11;;;;;;;0.00;0.00;;;0.70;71.80;;;;;;4987260;28;20484;-69
2024/01/21 02:39:37;;;;;;;0.00;0.00;;;0.80;71.60;;;;;;4989638;28;20046;-69
2024/01/21 02:42:03;;;;;;;0.00;0.00;;;0.70;71.20;;;;;;4993710;28;20050;-70
2024/01/21 02:44:28;;;;;;;0.08;0.08;;;0.80;71.20;;;;;;4990103;28;20046;-70
2024/01/21 02:46:54;;;;;;;0.00;0.00;;;0.70;70.90;;;;;;4989518;28;20994;-70
2024/01/21 02:49:23;;;;;;;0.52;0.52;;;0.70;70.80;;;;;;4989832;28;20054;-70
2024/01/21 02:51:49;;;;;;;0.00;0.00;;;0.70;70.60;;;;;;4990821;28;20042;-70
2024/01/21 02:54:15;;;;;;;0.10;0.10;;;0.70;70.00;;;;;;4989614;28;20050;-69
2024/01/21 02:56:41;;;;;;;0.10;0.10;;;0.70;70.50;;;;;;4989963;28;20046;-70
2024/01/21 02:59:06;;;;;;;0.30;0.30;;;0.80;70.10;;;;;;4990268;28;20137;-69
2024/01/21 03:01:33;;;;;;;0.10;0.10;;;0.80;70.10;;;;;;4989624;28;20050;-70
2024/01/21 03:03:59;;;;;;;0.08;0.08;;;0.80;70.40;;;;;;4995364;28;20054;-70
2024/01/21 03:06:25;;;;;;;0.10;0.10;;;0.80;70.40;;;;;;4990299;28;20050;-70
2024/01/21 03:08:50;;;;;;;0.10;0.10;;;0.80;70.20;;;;;;4988362;28;20038;-70
2024/01/21 03:11:16;;;;;;;0.10;0.10;;;0.90;70.10;;;;;;4997857;28;20046;-70
2024/01/21 03:13:42;;;;;;;0.10;0.10;;;0.90;70.10;;;;;;4994254;28;20049;-70
2024/01/21 03:16:07;;;;;;;0.10;0.10;;;0.90;70.20;;;;;;4994484;28;20050;-70
2024/01/21 03:18:38;;;;;;;0.00;0.00;;;0.80;70.10;;;;;;4988564;28;20053;-69
2024/01/21 03:21:07;;;;;;;0.00;0.00;;;0.90;70.10;;;;;;4990212;28;20054;-70
2024/01/21 03:23:33;;;;;;;0.43;0.43;;;0.90;70.80;;;;;;4981449;28;20703;-69
2024/01/21 03:26:00;;;;;;;0.32;0.32;;;0.90;70.70;;;;;;4990213;28;20042;-70
2024/01/21 03:28:26;;;;;;;0.32;0.32;;;0.80;70.70;;;;;;4988184;28;20042;-70
2024/01/21 03:30:52;;;;;;;0.10;0.10;;;0.80;70.60;;;;;;4987084;28;20081;-70
2024/01/21 03:33:18;;;;;;;0.00;0.00;;;0.80;71.00;;;;;;4988961;28;20054;-69
2024/01/21 03:35:44;;;;;;;0.10;0.10;;;0.90;70.70;;;;;;4989569;28;20547;-70
2024/01/21 03:38:10;;;;;;;0.15;0.15;;;0.80;70.90;;;;;;4988911;28;20121;-70
2024/01/21 03:40:35;;;;;;;0.00;0.00;;;0.90;71.60;;;;;;4988580;28;20513;-70
2024/01/21 03:43:01;;;;;;;1.65;1.55;;;0.90;71.20;;;;;;4987011;28;20129;-70
2024/01/21 03:45:26;;;;;;;0.00;0.00;;;0.80;71.30;;;;;;4991807;28;20120;-70
2024/01/21 03:47:52;;;;;;;2.38;2.28;;;0.90;70.80;;;;;;4988752;28;20373;-70
2024/01/21 03:50:20;;;;;;;0.10;0.10;;;0.80;70.80;;;;;;4986863;28;20058;-70
2024/01/21 03:52:47;;;;;;;0.10;0.10;;;0.90;71.40;;;;;;4990575;28;20057;-70
2024/01/21 03:55:17;;;;;;;0.03;0.03;;;0.90;70.80;;;;;;4988309;28;20038;-70
2024/01/21 03:57:43;;;;;;;0.10;0.10;;;0.90;70.50;;;;;;4988939;28;20051;-69
2024/01/21 04:00:10;;;;;;;0.10;0.10;;;1.00;71.00;;;;;;4988491;28;20153;-69
2024/01/21 04:02:36;;;;;;;0.20;0.20;;;1.00;71.00;;;;;;4989816;28;20042;-70
2024/01/21 04:05:03;;;;;;;0.10;0.10;;;1.10;71.20;;;;;;4990066;28;20046;-70
2024/01/21 04:07:29;;;;;;;0.00;0.00;;;1.10;70.50;;;;;;4992297;28;20034;-70
2024/01/21 04:09:55;;;;;;;0.25;0.25;;;1.10;70.40;;;;;;4997914;28;20046;-69
2024/01/21 04:12:21;;;;;;;0.32;0.32;;;1.10;70.40;;;;;;4990329;28;20057;-70
2024/01/21 04:14:46;;;;;;;0.10;0.10;;;1.10;69.30;;;;;;4987937;28;20129;-70
2024/01/21 04:17:12;;;;;;;0.00;0.00;;;1.10;69.60;;;;;;4987192;28;20073;-69
2024/01/21 04:19:38;;;;;;;0.17;0.17;;;1.20;70.00;;;;;;4988426;28;20048;-70
2024/01/21 04:22:04;;;;;;;0.13;0.13;;;1.10;69.10;;;;;;4987714;28;20046;-70
2024/01/21 04:24:30;;;;;;;0.00;0.00;;;1.10;69.40;;;;;;4987057;28;20078;-70
2024/01/21 04:26:56;;;;;;;0.10;0.10;;;1.20;70.00;;;;;;4988719;28;20086;-70
2024/01/21 04:29:21;;;;;;;0.00;0.00;;;1.20;69.80;;;;;;4988579;28;20105;-70
2024/01/21 04:31:47;;;;;;;0.30;0.30;;;1.20;70.30;;;;;;4987646;28;20042;-69
2024/01/21 04:34:13;;;;;;;0.10;0.10;;;1.20;70.00;;;;;;4987391;28;20078;-69
2024/01/21 04:36:39;;;;;;;0.08;0.08;;;1.20;70.90;;;;;;4987196;28;20050;-70
2024/01/21 04:39:06;;;;;;;0.20;0.20;;;1.20;70.40;;;;;;4988933;28;20058;-69
2024/01/21 04:41:32;;;;;;;0.20;0.20;;;1.20;70.30;;;;;;4989904;28;20046;-70
2024/01/21 04:43:58;;;;;;;0.00;0.00;;;1.20;69.70;;;;;;4987730;28;20058;-69
2024/01/21 04:46:24;;;;;;;0.00;0.00;;;1.30;69.00;;;;;;4983708;28;20046;-69
2024/01/21 04:48:50;;;;;;;0.00;0.00;;;1.30;69.70;;;;;;4986893;28;20042;-70
2024/01/21 04:51:16;;;;;;;0.00;0.00;;;1.30;69.90;;;;;;4987081;28;20169;-70
2024/01/21 04:53:43;;;;;;;0.38;0.38;;;1.30;69.40;;;;;;4986510;28;20507;-70
2024/01/21 04:56:18;;;;;;;0.00;0.00;;;1.20;69.10;;;;;;4986197;28;20100;-70
2024/01/21 04:58:45;;;;;;;0.00;0.00;;;1.30;69.10;;;;;;4986976;28;20058;-70
2024/01/21 05:01:11;;;;;;;0.08;0.08;;;1.30;69.90;;;;;;4988109;28;20045;-70
2024/01/21 05:03:37;;;;;;;0.00;0.00;;;1.40;69.10;;;;;;4988472;28;20053;-70
2024/01/21 05:06:04;;;;;;;0.05;0.05;;;1.30;69.20;;;;;;4988358;28;20046;-70
2024/01/21 05:08:29;;;;;;;0.15;0.15;;;1.30;69.10;;;;;;4988911;28;20072;-70
2024/01/21 05:10:55;;;;;;;0.00;0.00;;;1.40;69.80;;;;;;4987986;28;20882;-70
2024/01/21 05:13:21;;;;;;;0.00;0.00;;;1.40;70.20;;;;;;4986285;28;20054;-70
2024/01/21 05:15:46;;;;;;;0.10;0.10;;;1.40;69.80;;;;;;4986590;28;20049;-70
2024/01/21 05:18:12;;;;;;;0.28;0.28;;;1.40;68.50;;;;;;4986018;28;20038;-70
2024/01/21 05:20:37;;;;;;;1.20;1.13;;;1.50;69.30;;;;;;4988094;28;20038;-70
2024/01/21 05:23:03;;;;;;;0.10;0.10;;;1.40;67.80;;;;;;4985957;28;20042;-70
2024/01/21 05:25:29;;;;;;;0.05;0.05;;;1.40;67.30;;;;;;4986582;28;20050;-70
2024/01/21 05:27:56;;;;;;;0.10;0.10;;;1.40;67.40;;;;;;4987888;28;20049;-70
2024/01/21 05:30:21;;;;;;;0.00;0.00;;;1.40;66.90;;;;;;4987806;28;20073;-70
2024/01/21 05:32:50;;;;;;;0.00;0.00;;;1.60;67.80;;;;;;4987589;28;20050;-70
2024/01/21 05:35:17;;;;;;;0.00;0.00;;;1.60;67.20;;;;;;4986224;28;20334;-69
2024/01/21 05:37:42;;;;;;;3.10;2.47;;;1.70;65.80;;;;;;4987956;28;20911;-69
2024/01/21 05:40:08;;;;;;;0.00;0.00;;;1.70;65.20;;;;;;4986305;28;20137;-70
2024/01/21 05:42:34;;;;;;;0.00;0.00;;;1.90;64.20;;;;;;4979340;28;20133;-69
2024/01/21 05:45:00;;;;;;;0.80;0.80;;;2.00;64.10;;;;;;4974946;28;20077;-69
2024/01/21 05:47:26;;;;;;;0.10;0.10;;;1.90;64.40;;;;;;4973928;28;20050;-69
2024/01/21 05:49:51;;;;;;;0.00;0.00;;;2.00;64.90;;;;;;4996780;28;20038;-69
2024/01/21 05:52:17;;;;;;;0.00;0.00;;;2.00;63.90;;;;;;4988364;28;20046;-69
2024/01/21 05:54:43;;;;;;;0.17;0.17;;;2.00;63.10;;;;;;4988296;28;20078;-69
2024/01/21 05:57:09;;;;;;;0.00;0.00;;;2.10;62.60;;;;;;4988150;28;20126;-69
2024/01/21 05:59:35;;;;;;;0.03;0.03;;;2.00;63.90;;;;;;4990706;28;20301;-69
2024/01/21 06:02:01;;;;;;;2.38;2.00;;;2.00;63.50;;;;;;4992687;28;20042;-69
2024/01/21 06:04:26;;;;;;;0.10;0.10;;;2.00;64.40;;;;;;4988231;28;20042;-70
2024/01/21 06:06:52;;;;;;;0.10;0.10;;;2.00;63.90;;;;;;4985998;28;20431;-69
2024/01/21 06:09:18;;;;;;;0.00;0.00;;;1.90;64.40;;;;;;4991985;28;20101;-69
2024/01/21 06:11:44;;;;;;;0.00;0.00;;;1.90;63.90;;;;;;4984994;28;20042;-69
2024/01/21 06:14:11;;;;;;;0.00;0.00;;;1.90;65.10;;;;;;5005988;28;20077;-70
2024/01/21 06:16:37;;;;;;;0.10;0.10;;;1.90;65.10;;;;;;4994100;28;20054;-69
2024/01/21 06:19:03;;;;;;;0.00;0.00;;;1.90;64.10;;;;;;4992823;28;20078;-69
2024/01/21 06:21:30;;;;;;;0.10;0.10;;;1.90;64.70;;;;;;4992505;28;20125;-69
2024/01/21 06:23:56;;;;;;;0.00;0.00;;;1.90;65.00;;;;;;4994487;28;20053;-69
2024/01/21 06:26:22;;;;;;;0.00;0.00;;;1.90;64.60;;;;;;4997725;28;20057;-69
2024/01/21 06:28:51;;;;;;;0.20;0.20;;;1.90;65.40;;;;;;4990967;28;20061;-70
2024/01/21 06:31:18;;;;;;;0.00;0.00;;;1.90;65.30;;;;;;4986660;28;20054;-69
2024/01/21 06:33:44;;;;;;;1.05;1.05;;;1.90;65.80;;;;;;4987749;28;20133;-69
2024/01/21 06:36:10;;;;;;;0.00;0.00;;;1.90;65.90;;;;;;4995047;28;20050;-69
2024/01/21 06:38:37;;;;;;;0.03;0.03;;;1.80;65.60;;;;;;4988564;28;20747;-70
2024/01/21 06:41:03;;;;;;;0.00;0.00;;;1.80;65.90;;;;;;4988336;28;20042;-69
2024/01/21 06:43:29;;;;;;;0.00;0.00;;;1.70;66.50;;;;;;4989880;28;20073;-69
2024/01/21 06:45:54;;;;;;;0.17;0.17;;;1.80;66.40;;;;;;5002593;28;20472;-70
2024/01/21 06:48:20;;;;;;;0.00;0.00;;;1.80;66.90;;;;;;4993369;28;20042;-70
2024/01/21 06:50:50;;;;;;;2.88;2.50;;;1.70;67.30;;;;;;4989945;28;20280;-71
2024/01/21 06:53:16;;;;;;;0.00;0.00;;;1.70;67.40;;;;;;4991546;28;20054;-70
2024/01/21 06:55:43;;;;;;;0.20;0.20;;;1.70;67.40;;;;;;4995256;28;20042;-73
2024/01/21 06:58:09;;;;;;;0.10;0.10;;;1.70;67.40;;;;;;4997981;28;20235;-70
2024/01/21 07:00:35;;;;;;;0.05;0.05;;;1.70;67.90;;;;;;4985994;28;20038;-70
2024/01/21 07:03:00;;;;;;;0.10;0.10;;;1.70;68.20;;;;;;4990160;28;20046;-70
2024/01/21 07:05:26;;;;;;;0.10;0.10;;;1.60;68.20;;;;;;4989193;28;20535;-70
2024/01/21 07:07:52;;;;;;;0.00;0.00;;;1.60;68.60;;;;;;4990261;28;20074;-70
2024/01/21 07:10:17;;;;;;;0.10;0.10;;;1.70;68.80;;;;;;4993691;28;20058;-71
2024/01/21 07:12:43;;;;;;;0.10;0.10;;;1.60;68.90;;;;;;4985950;28;20058;-71
2024/01/21 07:15:09;;;;;;;0.10;0.10;;;1.60;69.00;;;;;;4974831;28;20038;-71
2024/01/21 07:17:35;;;;;;;0.05;0.05;;;1.60;68.90;;;;;;4984834;28;20087;-71
2024/01/21 07:20:01;;;;;;;0.68;0.68;;;1.60;68.80;;;;;;4985613;28;20047;-71
2024/01/21 07:22:27;;;;;;;0.00;0.00;;;1.60;68.90;;;;;;4981432;28;20612;-71
2024/01/21 07:24:53;;;;;;;0.20;0.20;;;1.60;69.10;;;;;;4988023;28;20055;-71
2024/01/21 07:27:19;;;;;;;0.00;0.00;;;1.60;69.20;;;;;;4989417;28;20058;-71
2024/01/21 07:29:44;;;;;;;0.00;0.00;;;1.60;69.10;;;;;;4993705;28;20112;-73
2024/01/21 07:32:11;;;;;;;0.10;0.10;;;1.60;69.20;;;;;;4985431;28;20050;-73
2024/01/21 07:34:37;;;;;;;2.80;2.60;;;1.60;69.20;;;;;;4996123;28;20050;-70
2024/01/21 07:37:03;;;;;;;0.00;0.00;;;1.60;69.10;;;;;;4993413;28;20499;-73
2024/01/21 07:39:28;;;;;;;0.30;0.30;;;1.60;68.80;;;;;;4977674;28;20038;-72
2024/01/21 07:41:54;;;;;;;1.35;0.75;;;1.70;69.30;;;;;;4985652;28;20136;-73
2024/01/21 07:44:20;;;;;;;0.73;0.73;;;1.70;69.60;;;;;;4986314;28;20050;-73
2024/01/21 07:46:46;;;;;;;0.00;0.00;;;1.70;69.60;;;;;;4988139;28;20127;-72
2024/01/21 07:49:11;;;;;;;0.10;0.10;;;1.70;70.10;;;;;;4988076;28;20380;-70
2024/01/21 07:51:37;;;;;;;0.22;0.22;;;1.70;69.80;;;;;;4986850;28;20053;-73
2024/01/21 07:54:03;;;;;;;0.00;0.00;;;1.70;70.10;;;;;;4986770;28;20120;-73
2024/01/21 07:56:28;;;;;;;0.20;0.20;;;1.70;69.80;;;;;;4986939;28;20408;-73
2024/01/21 07:58:54;;;;;;;0.00;0.00;;;1.70;70.10;;;;;;4986025;28;20118;-73
2024/01/21 08:01:21;;;;;;;0.22;0.22;;;1.80;70.50;;;;;;4986557;28;20120;-73
2024/01/21 08:03:47;;;;;;;0.00;0.00;;;1.80;70.80;;;;;;4986771;28;20049;-72
2024/01/21 08:06:13;;;;;;;0.08;0.08;;;1.70;71.10;;;;;;4986254;28;20093;-73
2024/01/21 08:08:39;;;;;;;0.00;0.00;;;1.70;71.10;;;;;;4987677;28;20164;-73
2024/01/21 08:11:05;;;;;;;0.17;0.17;;;1.80;71.50;;;;;;4987529;28;20042;-73
2024/01/21 08:13:31;;;;;;;0.10;0.10;;;1.80;71.40;;;;;;4988204;28;20065;-73
2024/01/21 08:15:57;;;;;;;8.57;2.08;;;1.70;71.30;;;;;;5001257;28;20046;-73
2024/01/21 08:18:23;;;;;;;0.00;0.00;;;1.90;71.20;;;;;;4985592;28;20177;-72
2024/01/21 08:20:48;;;;;;;1.20;1.15;;;1.90;71.40;;;;;;4989592;28;20137;-70
2024/01/21 08:23:15;;;;;;;0.00;0.00;;;1.90;71.40;;;;;;4988415;28;20035;-70
2024/01/21 08:25:41;;;;;;;0.00;0.00;;;2.00;71.20;;;;;;4988702;28;20073;-70
2024/01/21 08:28:07;;;;;;;0.10;0.10;;;1.90;71.70;;;;;;4986468;28;20050;-70
2024/01/21 08:30:32;;;;;;;0.00;0.00;;;2.00;71.60;;;;;;4988007;28;20046;-70
2024/01/21 08:32:58;;;;;;;0.25;0.25;;;2.00;71.70;;;;;;4985720;28;20065;-70
2024/01/21 08:35:24;;;;;;;0.00;0.00;;;2.10;71.20;;;;;;4976462;28;20173;-70
2024/01/21 08:37:49;;;;;;;0.00;0.00;;;2.10;71.20;;;;;;4987839;28;20042;-70
2024/01/21 08:40:15;;;;;;;0.10;0.10;;;2.10;71.20;;;;;;4987522;28;20042;-70
2024/01/21 08:42:42;;;;;;;0.13;0.13;;;2.10;71.70;;;;;;4987398;28;20042;-70
2024/01/21 08:45:08;;;;;;;0.10;0.10;;;2.10;71.40;;;;;;4987113;28;20038;-70
2024/01/21 08:47:34;;;;;;;0.10;0.10;;;2.30;71.10;;;;;;4987021;28;20053;-70
2024/01/21 08:50:00;;;;;;;0.10;0.10;;;2.20;70.80;;;;;;4986624;28;20610;-70
2024/01/21 08:52:26;;;;;;;0.00;0.00;;;2.30;71.10;;;;;;4987769;28;20057;-70
2024/01/21 08:54:52;;;;;;;0.00;0.00;;;2.30;71.20;;;;;;4987523;28;20420;-70
2024/01/21 08:57:18;;;;;;;0.00;0.00;;;2.40;70.80;;;;;;4987326;28;20050;-70
2024/01/21 08:59:44;;;;;;;0.00;0.00;;;2.40;70.30;;;;;;4985802;28;20050;-70
2024/01/21 09:02:10;;;;;;;1.27;1.17;;;2.50;70.10;;;;;;4987266;28;20077;-70
2024/01/21 09:04:40;;;;;;;0.10;0.10;;;2.50;70.70;;;;;;4986993;28;20100;-70
2024/01/21 09:07:06;;;;;;;0.00;0.00;;;2.50;70.20;;;;;;4985532;28;20050;-70
2024/01/21 09:09:33;;;;;;;0.00;0.00;;;2.50;70.80;;;;;;4987093;28;20046;-69
2024/01/21 09:11:59;;;;;;;0.00;0.00;;;2.60;70.50;;;;;;4987034;28;20116;-70
2024/01/21 09:14:25;;;;;;;0.10;0.10;;;2.60;70.90;;;;;;4985415;28;20050;-70
2024/01/21 09:16:51;;;;;;;0.10;0.10;;;2.70;70.80;;;;;;4987010;28;20046;-69
2024/01/21 09:19:17;;;;;;;0.75;0.75;;;2.70;71.20;;;;;;4989428;28;20482;-70
2024/01/21 09:21:43;;;;;;;0.10;0.10;;;2.80;71.00;;;;;;4986582;28;20034;-70
2024/01/21 09:24:08;;;;;;;0.00;0.00;;;2.90;70.80;;;;;;4993278;28;20042;-64
2024/01/21 09:26:34;;;;;;;0.10;0.10;;;2.90;72.20;;;;;;4984617;28;20049;-70
2024/01/21 09:29:00;;;;;;;0.10;0.10;;;3.10;71.10;;;;;;4986380;28;20038;-70
2024/01/21 09:31:26;;;;;;;0.38;0.38;;;3.10;71.00;;;;;;4986453;28;20089;-70
2024/01/21 09:33:52;;;;;;;0.00;0.00;;;3.00;71.30;;;;;;4987883;28;20085;-71
2024/01/21 09:36:19;;;;;;;0.05;0.05;;;3.00;71.00;;;;;;4990390;28;21030;-70
2024/01/21 09:38:45;;;;;;;0.20;0.20;;;3.00;71.50;;;;;;4986778;28;20054;-70
2024/01/21 09:41:32;;;;;;;0.00;0.00;;;3.00;71.70;;;;;;4986382;28;20041;-70
2024/01/21 09:43:59;;;;;;;0.00;0.00;;;3.00;71.80;;;;;;4988387;28;20043;-70
2024/01/21 09:46:26;;;;;;;0.10;0.10;;;3.00;72.20;;;;;;4998064;28;20655;-70
2024/01/21 09:48:53;;;;;;;0.00;0.00;;;3.10;72.50;;;;;;4993852;28;20038;-70
2024/01/21 09:51:20;;;;;;;0.75;0.75;;;3.10;72.30;;;;;;4988128;28;20113;-70
2024/01/21 09:53:50;;;;;;;0.63;0.63;;;3.00;72.80;;;;;;4994312;28;20042;-70
2024/01/21 09:56:17;;;;;;;0.40;0.40;;;3.10;73.10;;;;;;4987506;28;20129;-69
2024/01/21 09:58:42;;;;;;;0.47;0.47;;;3.10;73.40;;;;;;5002410;28;20149;-70
2024/01/21 10:01:08;;;;;;;0.00;0.00;;;3.00;73.80;;;;;;5010405;28;20128;-69
2024/01/21 10:03:35;;;;;;;0.00;0.00;;;3.10;74.00;;;;;;5004157;28;20034;-71
2024/01/21 10:06:00;;;;;;;0.00;0.00;;;3.10;74.20;;;;;;4988736;28;20046;-70
2024/01/21 10:08:28;;;;;;;0.95;0.95;;;3.20;74.00;;;;;;4989874;28;20057;-70
2024/01/21 10:10:54;;;;;;;0.00;0.00;;;3.20;74.30;;;;;;4987287;28;20038;-70
2024/01/21 10:13:20;;;;;;;0.08;0.08;;;3.10;74.60;;;;;;4989892;28;20258;-70
2024/01/21 10:15:45;;;;;;;0.00;0.00;;;3.20;75.00;;;;;;4989024;28;20478;-71
2024/01/21 10:18:11;;;;;;;0.00;0.00;;;3.10;75.70;;;;;;4997423;28;20072;-70
2024/01/21 10:20:37;;;;;;;0.08;0.08;;;3.10;76.00;;;;;;5008370;28;20050;-70
2024/01/21 10:23:10;;;;;;;0.57;0.57;;;3.20;75.90;;;;;;4994394;28;20042;-70
2024/01/21 10:25:39;;;;;;;0.10;0.10;;;3.20;76.30;;;;;;4984016;28;20385;-70
2024/01/21 10:28:05;;;;;;;0.10;0.10;;;3.20;76.90;;;;;;4989093;28;20054;-70
2024/01/21 10:30:31;;;;;;;0.00;0.00;;;3.20;77.30;;;;;;4987384;28;20068;-71
2024/01/21 10:32:57;;;;;;;0.00;0.00;;;3.20;77.40;;;;;;4972837;28;20053;-71
2024/01/21 10:35:23;;;;;;;0.08;0.08;;;3.20;77.70;;;;;;4995427;28;20050;-70
2024/01/21 10:37:49;;;;;;;0.10;0.10;;;3.20;77.90;;;;;;5001104;28;20042;-70
2024/01/21 10:40:15;;;;;;;1.42;1.30;;;3.20;78.10;;;;;;4987579;28;20057;-70
2024/01/21 10:42:41;;;;;;;0.10;0.10;;;3.30;78.30;;;;;;4987006;28;20112;-69
2024/01/21 10:45:08;;;;;;;0.10;0.10;;;3.40;78.40;;;;;;4990341;28;20397;-69
2024/01/21 10:47:35;;;;;;;0.00;0.00;;;3.40;78.10;;;;;;5006307;28;20050;-69
2024/01/21 10:50:05;;;;;;;0.10;0.10;;;3.30;78.60;;;;;;4997531;28;20057;-70
2024/01/21 10:52:31;;;;;;;0.00;0.00;;;3.50;78.80;;;;;;4985689;28;20054;-71
2024/01/21 10:54:58;;;;;;;0.00;0.00;;;3.40;79.00;;;;;;4988499;28;20042;-70
2024/01/21 10:57:24;;;;;;;0.22;0.22;;;3.40;79.10;;;;;;4986720;28;20050;-70
2024/01/21 10:59:50;;;;;;;0.03;0.03;;;3.40;79.60;;;;;;4979914;23;20118;-67
2024/01/21 11:02:16;;;;;;;0.00;0.00;;;3.50;79.50;;;;;;4987236;28;20588;-67
2024/01/21 11:04:42;;;;;;;0.32;0.32;;;3.50;79.80;;;;;;4972836;28;20043;-67
2024/01/21 11:07:13;;;;;;;0.00;0.00;;;3.50;80.10;;;;;;4966144;28;20232;-68
2024/01/21 11:09:42;;;;;;;0.32;0.32;;;3.50;80.00;;;;;;4962658;28;20050;-68
2024/01/21 11:12:08;;;;;;;0.00;0.00;;;3.50;80.30;;;;;;4967183;28;20130;-68
2024/01/21 11:14:35;;;;;;;0.03;0.03;;;3.60;80.40;;;;;;4974958;28;20043;-68
2024/01/21 11:17:06;;;;;;;0.10;0.10;;;3.60;80.90;;;;;;4969572;28;20554;-68
2024/01/21 11:19:47;;;;;;;0.00;0.00;;;3.60;81.10;;;;;;4975185;28;20055;-68
2024/01/21 11:22:14;;;;;;;0.22;0.22;;;3.60;81.40;;;;;;4970309;28;20055;-68
2024/01/21 11:24:41;;;;;;;0.00;0.00;;;3.60;81.50;;;;;;4966058;28;20043;-68
2024/01/21 11:27:21;;;;;;;1.55;1.35;;;3.60;81.80;;;;;;5007189;23;20073;-68
2024/01/21 11:30:13;;;;;;;0.10;0.10;;;3.60;82.30;;;;;;4937871;29;20051;-68
2024/01/21 11:32:41;;;;;;;0.00;0.00;;;3.70;82.60;;;;;;4952067;28;20090;-68
2024/01/21 11:35:14;;;;;;;0.03;0.03;;;3.70;82.90;;;;;;4952937;28;20541;-68
2024/01/21 11:37:41;;;;;;;2.83;1.70;;;3.70;83.10;;;;;;4950411;29;20126;-68
2024/01/21 11:40:07;;;;;;;0.10;0.10;;;3.70;83.80;;;;;;4953179;28;20117;-68
2024/01/21 11:42:34;;;;;;;0.13;0.13;;;3.70;84.30;;;;;;4956915;28;20523;-68
2024/01/21 11:45:04;;;;;;;0.05;0.05;;;3.70;84.60;;;;;;4945428;28;20075;-68
2024/01/21 11:47:31;;;;;;;0.00;0.00;;;3.70;84.50;;;;;;4953623;28;20059;-68
2024/01/21 11:49:59;;;;;;;0.10;0.10;;;3.80;84.50;;;;;;4954018;28;20134;-68
2024/01/21 11:52:24;;;;;;;0.10;0.10;;;3.70;84.70;;;;;;4967535;28;20559;-67
2024/01/21 11:54:51;;;;;;;0.00;0.00;;;3.70;85.00;;;;;;4954115;28;20047;-68
2024/01/21 11:57:17;;;;;;;0.45;0.45;;;3.90;85.10;;;;;;4969166;28;20448;-68
2024/01/21 11:59:43;;;;;;;0.00;0.00;;;3.90;85.10;;;;;;4966911;28;20067;-68
2024/01/21 12:02:09;;;;;;;0.85;0.85;;;3.90;85.60;;;;;;4969364;28;20186;-68
2024/01/21 12:04:36;;;;;;;0.08;0.08;;;3.90;85.40;;;;;;4953662;28;20078;-68
2024/01/21 12:07:02;;;;;;;0.10;0.10;;;3.90;85.70;;;;;;4953437;28;20378;-67
2024/01/21 12:09:29;;;;;;;0.05;0.05;;;3.90;85.60;;;;;;4956873;28;20047;-68
2024/01/21 12:11:55;;;;;;;0.10;0.10;;;4.00;85.90;;;;;;5037813;23;20051;-67
2024/01/21 12:14:21;;;;;;;0.82;0.77;;;4.00;86.00;;;;;;4975392;28;20069;-68
2024/01/21 12:16:52;;;;;;;0.85;0.85;;;4.00;85.90;;;;;;4980610;28;20072;-68
2024/01/21 12:19:18;;;;;;;0.65;0.60;;;4.00;86.00;;;;;;4987012;28;20638;-68
2024/01/21 12:21:44;;;;;;;0.90;0.77;;;4.00;86.00;;;;;;4983371;28;20133;-68
2024/01/21 12:24:10;;;;;;;0.00;0.00;;;4.00;86.20;;;;;;4980741;28;20042;-68
2024/01/21 12:26:36;;;;;;;5.80;3.97;;;4.00;86.20;;;;;;4984568;28;20046;-68
2024/01/21 12:29:10;;;;;;;0.00;0.00;;;4.10;86.30;;;;;;4990907;28;20052;-68
2024/01/21 12:31:40;;;;;;;0.10;0.10;;;4.10;86.20;;;;;;4996011;28;20042;-68
2024/01/21 12:34:08;;;;;;;0.90;0.90;;;4.10;86.20;;;;;;4990019;28;20056;-67
2024/01/21 12:36:37;;;;;;;0.00;0.00;;;4.10;86.40;;;;;;4989671;28;20042;-67
2024/01/21 12:39:06;;;;;;;0.10;0.10;;;4.10;86.40;;;;;;4986232;28;20041;-66
2024/01/21 12:41:34;;;;;;;0.08;0.08;;;4.20;86.50;;;;;;4993644;28;20050;-66
2024/01/21 12:43:59;;;;;;;2.25;1.13;;;4.20;86.50;;;;;;4990180;28;20046;-68
2024/01/21 12:46:25;;;;;;;3.95;1.55;;;4.20;86.50;;;;;;4991294;28;20463;-68
2024/01/21 12:48:51;;;;;;;0.05;0.05;;;4.20;86.50;;;;;;4974941;28;20058;-68
2024/01/21 12:51:18;;;;;;;3.40;1.05;;;4.20;86.50;;;;;;4972151;28;20137;-67
2024/01/21 12:53:49;;;;;;;0.20;0.20;;;4.30;86.50;;;;;;4972128;28;20057;-68